createdAt,value
2023-09-08T00:00:45.245Z,94875.53
2023-09-08T00:03:11.785Z,94875.28
2023-09-08T00:05:38.243Z,94875.28
2023-09-08T00:08:04.689Z,94871.28
2023-09-08T00:10:31.122Z,94864.00
2023-09-08T00:12:57.581Z,94869.00
2023-09-08T00:15:24.026Z,94873.91
2023-09-08T00:17:50.493Z,94866.31
2023-09-08T00:20:17.013Z,94867.44
2023-09-08T00:22:43.587Z,94861.41
2023-09-08T00:25:10.167Z,94868.59
2023-09-08T00:27:36.619Z,94870.16
2023-09-08T00:30:03.383Z,94865.81
2023-09-08T00:32:29.989Z,94871.47
2023-09-08T00:34:56.526Z,94873.00
2023-09-08T00:37:23.011Z,94866.81
2023-09-08T00:39:49.443Z,94870.25
2023-09-08T00:42:15.894Z,94874.81
2023-09-08T00:44:42.349Z,94871.28
2023-09-08T00:47:08.971Z,94874.56
2023-09-08T00:49:35.489Z,94871.38
2023-09-08T00:52:02.054Z,94870.25
2023-09-08T00:54:28.470Z,94871.06
2023-09-08T00:56:54.905Z,94871.28
2023-09-08T00:59:21.414Z,94870.81
2023-09-08T01:01:47.872Z,94874.06
2023-09-08T01:04:14.377Z,94869.78
2023-09-08T01:06:40.843Z,94873.75
2023-09-08T01:09:07.337Z,94875.38
2023-09-08T01:11:33.817Z,94870.16
2023-09-08T01:14:00.282Z,94867.63
2023-09-08T01:16:26.718Z,94877.22
2023-09-08T01:18:53.211Z,94869.28
2023-09-08T01:21:19.749Z,94876.56
2023-09-08T01:23:46.209Z,94878.78
2023-09-08T01:26:12.635Z,94869.88
2023-09-08T01:28:39.122Z,94876.63
2023-09-08T01:31:05.650Z,94873.81
2023-09-08T01:33:32.170Z,94875.34
2023-09-08T01:35:58.608Z,94869.97
2023-09-08T01:38:25.064Z,94871.97
2023-09-08T01:40:51.498Z,94866.00
2023-09-08T01:43:17.952Z,94871.16
2023-09-08T01:45:44.422Z,94866.38
2023-09-08T01:48:10.930Z,94865.53
2023-09-08T01:50:37.420Z,94865.03
2023-09-08T01:53:03.849Z,94865.69
2023-09-08T01:55:30.295Z,94861.78
2023-09-08T01:57:56.750Z,94862.75
2023-09-08T02:00:23.216Z,94864.25
2023-09-08T02:02:49.710Z,94857.63
2023-09-08T02:05:16.214Z,94862.50
2023-09-08T02:07:42.751Z,94863.13
2023-09-08T02:10:09.265Z,94857.19
2023-09-08T02:12:35.698Z,94859.41
2023-09-08T02:15:02.336Z,94854.97
2023-09-08T02:17:28.844Z,94860.25
2023-09-08T02:19:55.267Z,94854.78
2023-09-08T02:22:21.710Z,94859.69
2023-09-08T02:24:48.130Z,94849.88
2023-09-08T02:27:14.578Z,94853.97
2023-09-08T02:29:41.013Z,94849.53
2023-09-08T02:32:07.462Z,94854.81
2023-09-08T02:34:33.883Z,94858.44
2023-09-08T02:37:00.307Z,94866.16
2023-09-08T02:39:26.815Z,94856.78
2023-09-08T02:41:53.274Z,94858.22
2023-09-08T02:44:19.716Z,94867.53
2023-09-08T02:46:46.219Z,94864.84
2023-09-08T02:49:12.797Z,94868.31
2023-09-08T02:51:40.012Z,94870.41
2023-09-08T02:54:06.511Z,94879.16
2023-09-08T02:56:33.000Z,94882.09
2023-09-08T02:58:59.452Z,94883.25
2023-09-08T03:01:25.933Z,94883.38
2023-09-08T03:03:52.545Z,94879.03
2023-09-08T03:06:19.067Z,94871.28
2023-09-08T03:08:45.531Z,94879.44
2023-09-08T03:11:11.959Z,94879.22
2023-09-08T03:13:38.432Z,94877.25
2023-09-08T03:16:04.952Z,94875.38
2023-09-08T03:18:31.387Z,94879.63
2023-09-08T03:20:57.823Z,94878.81
2023-09-08T03:23:24.316Z,94875.50
2023-09-08T03:25:50.758Z,94876.56
2023-09-08T03:28:17.203Z,94882.22
2023-09-08T03:30:43.646Z,94881.94
2023-09-08T03:33:10.282Z,94884.66
2023-09-08T03:35:36.923Z,94880.56
2023-09-08T03:38:03.409Z,94875.31
2023-09-08T03:40:29.886Z,94871.31
2023-09-08T03:42:56.370Z,94869.13
2023-09-08T03:45:22.891Z,94871.81
2023-09-08T03:47:49.342Z,94875.78
2023-09-08T03:50:15.810Z,94880.84
2023-09-08T03:52:42.234Z,94876.63
2023-09-08T03:55:08.688Z,94873.00
2023-09-08T03:57:35.123Z,94869.66
2023-09-08T04:00:01.570Z,94867.78
2023-09-08T04:02:28.091Z,94874.44
2023-09-08T04:04:54.665Z,94872.56
2023-09-08T04:07:21.211Z,94869.06
2023-09-08T04:09:47.690Z,94873.63
2023-09-08T04:12:14.164Z,94878.41
2023-09-08T04:14:40.667Z,94874.34
2023-09-08T04:17:07.130Z,94880.53
2023-09-08T04:19:34.558Z,94885.91
2023-09-08T04:22:01.029Z,94881.34
2023-09-08T04:24:27.633Z,94879.72
2023-09-08T04:26:54.123Z,94888.38
2023-09-08T04:29:20.562Z,94884.88
2023-09-08T04:31:47.070Z,94891.28
2023-09-08T04:34:13.833Z,94887.19
2023-09-08T04:36:40.271Z,94887.66
2023-09-08T04:39:06.752Z,94897.38
2023-09-08T04:41:33.216Z,94897.59
2023-09-08T04:43:59.665Z,94890.81
2023-09-08T04:46:26.112Z,94891.88
2023-09-08T04:48:52.616Z,94890.34
2023-09-08T04:51:19.061Z,94895.13
2023-09-08T04:53:45.577Z,94892.34
2023-09-08T04:56:12.021Z,94892.94
2023-09-08T04:58:38.475Z,94895.97
2023-09-08T05:01:04.927Z,94894.69
2023-09-08T05:03:31.536Z,94889.84
2023-09-08T05:05:58.135Z,94888.13
2023-09-08T05:08:24.642Z,94892.41
2023-09-08T05:10:51.103Z,94889.72
2023-09-08T05:13:30.136Z,94902.59
2023-09-08T05:15:57.066Z,94904.91
2023-09-08T05:18:23.604Z,94901.41
2023-09-08T05:20:50.099Z,94903.41
2023-09-08T05:23:16.583Z,94908.09
2023-09-08T05:25:43.020Z,94908.91
2023-09-08T05:28:09.472Z,94906.44
2023-09-08T05:30:35.906Z,94910.56
2023-09-08T05:33:02.446Z,94914.03
2023-09-08T05:35:29.021Z,94908.84
2023-09-08T05:37:55.462Z,94906.50
2023-09-08T05:40:21.933Z,94911.38
2023-09-08T05:42:48.362Z,94906.94
2023-09-08T05:45:14.799Z,94912.22
2023-09-08T05:47:41.295Z,94911.28
2023-09-08T05:50:07.736Z,94919.22
2023-09-08T05:52:34.238Z,94917.69
2023-09-08T05:55:03.846Z,94923.19
2023-09-08T05:57:30.604Z,94922.84
2023-09-08T05:59:57.074Z,94914.88
2023-09-08T06:02:23.584Z,94917.44
2023-09-08T06:04:50.062Z,94921.41
2023-09-08T06:07:16.516Z,94931.22
2023-09-08T06:09:43.020Z,94932.84
2023-09-08T06:12:09.498Z,94925.97
2023-09-08T06:14:36.203Z,94923.38
2023-09-08T06:17:02.673Z,94927.34
2023-09-08T06:19:29.195Z,94927.78
2023-09-08T06:21:55.624Z,94924.50
2023-09-08T06:24:22.086Z,94934.41
2023-09-08T06:26:48.550Z,94931.53
2023-09-08T06:29:15.027Z,94931.41
2023-09-08T06:31:41.516Z,94939.91
2023-09-08T06:34:08.193Z,94940.56
2023-09-08T06:36:34.768Z,94944.19
2023-09-08T06:39:01.237Z,94940.53
2023-09-08T06:41:27.709Z,94945.22
2023-09-08T06:43:54.161Z,94948.56
2023-09-08T06:46:20.646Z,94947.59
2023-09-08T06:48:47.129Z,94947.94
2023-09-08T06:51:13.627Z,94942.28
2023-09-08T06:53:40.074Z,94944.00
2023-09-08T06:56:06.546Z,94942.78
2023-09-08T06:58:33.297Z,94942.38
2023-09-08T07:01:00.087Z,94932.00
2023-09-08T07:03:26.683Z,94937.34
2023-09-08T07:05:53.308Z,94940.19
2023-09-08T07:08:19.837Z,94946.06
2023-09-08T07:10:46.425Z,94951.03
2023-09-08T07:13:13.230Z,94950.84
2023-09-08T07:15:40.796Z,94955.31
2023-09-08T07:18:08.421Z,94955.09
2023-09-08T07:20:34.933Z,94949.75
2023-09-08T07:23:01.392Z,94952.56
2023-09-08T07:25:27.932Z,94952.72
2023-09-08T07:27:54.434Z,94944.69
2023-09-08T07:30:20.947Z,94948.59
2023-09-08T07:32:47.439Z,94953.53
2023-09-08T07:35:13.983Z,94950.88
2023-09-08T07:37:40.394Z,94957.97
2023-09-08T07:40:06.825Z,94953.97
2023-09-08T07:42:33.286Z,94954.59
2023-09-08T07:44:59.729Z,94950.38
2023-09-08T07:47:26.276Z,94956.06
2023-09-08T07:49:52.728Z,94961.28
2023-09-08T07:52:19.178Z,94951.41
2023-09-08T07:54:45.601Z,94956.38
2023-09-08T07:57:12.037Z,94953.94
2023-09-08T07:59:38.540Z,94944.00
2023-09-08T08:02:05.008Z,94948.59
2023-09-08T08:04:31.508Z,94957.06
2023-09-08T08:06:58.100Z,94950.38
2023-09-08T08:09:24.556Z,94951.22
2023-09-08T08:11:51.044Z,94948.59
2023-09-08T08:14:17.490Z,94951.91
2023-09-08T08:16:43.927Z,94954.72
2023-09-08T08:19:10.388Z,94957.69
2023-09-08T08:21:36.919Z,94957.66
2023-09-08T08:24:03.453Z,94949.50
2023-09-08T08:26:29.908Z,94952.00
2023-09-08T08:28:56.364Z,94952.00
2023-09-08T08:31:22.845Z,94957.13
2023-09-08T08:33:49.376Z,94953.75
2023-09-08T08:36:15.882Z,94953.28
2023-09-08T08:38:42.329Z,94948.19
2023-09-08T08:41:08.777Z,94958.19
2023-09-08T08:43:35.240Z,94951.97
2023-09-08T08:46:01.837Z,94950.59
2023-09-08T08:48:28.321Z,94948.44
2023-09-08T08:50:54.764Z,94953.59
2023-09-08T08:53:21.198Z,94948.75
2023-09-08T08:55:47.642Z,94946.59
2023-09-08T08:58:14.079Z,94945.50
2023-09-08T09:00:40.559Z,94941.72
2023-09-08T09:03:14.986Z,94944.44
2023-09-08T09:05:45.647Z,94942.03
2023-09-08T09:08:14.314Z,94935.34
2023-09-08T09:10:40.787Z,94930.75
2023-09-08T09:13:07.257Z,94932.72
2023-09-08T09:15:33.862Z,94930.56
2023-09-08T09:18:00.514Z,94934.09
2023-09-08T09:20:26.990Z,94928.38
2023-09-08T09:22:53.440Z,94925.44
2023-09-08T09:25:20.102Z,94928.16
2023-09-08T09:27:46.732Z,94919.50
2023-09-08T09:30:13.295Z,94926.91
2023-09-08T09:32:39.949Z,94926.38
2023-09-08T09:35:06.539Z,94929.63
2023-09-08T09:37:33.042Z,94925.81
2023-09-08T09:39:59.581Z,94921.50
2023-09-08T09:42:26.062Z,94923.13
2023-09-08T09:44:52.825Z,94916.06
2023-09-08T09:47:19.395Z,94917.44
2023-09-08T09:49:45.990Z,94918.53
2023-09-08T09:52:13.600Z,94915.25
2023-09-08T09:54:40.099Z,94913.09
2023-09-08T09:57:06.778Z,94919.56
2023-09-08T09:59:34.358Z,94914.69
2023-09-08T10:02:00.967Z,94904.34
2023-09-08T10:04:27.486Z,94908.13
2023-09-08T10:06:54.185Z,94905.66
2023-09-08T10:09:20.712Z,94899.13
2023-09-08T10:11:47.371Z,94897.47
2023-09-08T10:14:13.982Z,94892.56
2023-09-08T10:16:41.576Z,94902.03
2023-09-08T10:19:08.085Z,94899.28
2023-09-08T10:21:34.625Z,94909.03
2023-09-08T10:24:01.093Z,94907.13
2023-09-08T10:26:30.209Z,94899.59
2023-09-08T10:28:57.520Z,94909.34
2023-09-08T10:31:25.157Z,94909.31
2023-09-08T10:33:51.781Z,94906.31
2023-09-08T10:36:18.324Z,94901.63
2023-09-08T10:38:45.885Z,94896.41
2023-09-08T10:41:12.597Z,94898.00
2023-09-08T10:43:39.138Z,94896.94
2023-09-08T10:46:05.823Z,94892.84
2023-09-08T10:48:33.582Z,94890.41
2023-09-08T10:51:00.423Z,94886.31
2023-09-08T10:53:26.898Z,94891.47
2023-09-08T10:58:25.710Z,94887.84
2023-09-08T11:00:54.319Z,94880.78
2023-09-08T11:03:20.914Z,94880.53
2023-09-08T11:05:48.510Z,94880.50
2023-09-08T11:08:15.105Z,94881.53
2023-09-08T11:10:42.684Z,94884.75
2023-09-08T11:13:09.173Z,94885.84
2023-09-08T11:15:35.930Z,94888.22
2023-09-08T11:18:02.501Z,94882.72
2023-09-08T11:20:30.212Z,94876.97
2023-09-08T11:22:57.728Z,94869.06
2023-09-08T11:25:24.320Z,94878.34
2023-09-08T11:27:50.780Z,94869.91
2023-09-08T11:30:17.477Z,94875.03
2023-09-08T11:32:44.088Z,94875.03
2023-09-08T11:35:10.707Z,94872.25
2023-09-08T11:37:37.226Z,94873.03
2023-09-08T11:40:05.891Z,94880.38
2023-09-08T11:42:32.390Z,94873.84
2023-09-08T11:44:58.841Z,94870.03
2023-09-08T11:47:25.293Z,94874.59
2023-09-08T11:49:51.739Z,94868.00
2023-09-08T11:52:18.268Z,94863.63
2023-09-08T11:55:00.194Z,94861.19
2023-09-08T11:57:31.842Z,94861.41
2023-09-08T11:59:58.680Z,94865.25
2023-09-08T12:02:25.204Z,94860.31
2023-09-08T12:04:51.863Z,94863.88
2023-09-08T12:07:18.366Z,94855.16
2023-09-08T12:09:44.842Z,94861.47
2023-09-08T12:12:11.323Z,94859.56
2023-09-08T12:14:37.792Z,94857.94
2023-09-08T12:17:04.262Z,94857.94
2023-09-08T12:19:31.447Z,94851.66
2023-09-08T12:21:58.099Z,94852.75
2023-09-08T12:24:25.620Z,94845.72
2023-09-08T12:26:52.115Z,94847.09
2023-09-08T12:29:18.798Z,94846.28
2023-09-08T12:31:45.477Z,94848.19
2023-09-08T12:34:13.088Z,94847.69
2023-09-08T12:36:40.578Z,94849.59
2023-09-08T12:39:07.169Z,94835.16
2023-09-08T12:41:33.625Z,94835.72
2023-09-08T12:44:01.334Z,94844.41
2023-09-08T12:46:27.879Z,94836.25
2023-09-08T12:48:55.556Z,94841.41
2023-09-08T12:51:23.123Z,94834.06
2023-09-08T12:53:49.651Z,94829.72
2023-09-08T12:56:17.299Z,94830.28
2023-09-08T12:58:43.998Z,94826.44
2023-09-08T13:01:10.600Z,94831.41
2023-09-08T13:03:38.207Z,94822.09
2023-09-08T13:06:04.823Z,94817.47
2023-09-08T13:08:31.335Z,94812.28
2023-09-08T13:10:58.052Z,94810.38
2023-09-08T13:13:25.617Z,94806.53
2023-09-08T13:15:53.239Z,94814.94
2023-09-08T13:18:19.865Z,94815.16
2023-09-08T13:20:47.435Z,94811.06
2023-09-08T13:23:15.000Z,94804.81
2023-09-08T13:25:41.577Z,94802.09
2023-09-08T13:28:08.118Z,94807.81
2023-09-08T13:30:35.743Z,94808.09
2023-09-08T13:33:02.396Z,94807.28
2023-09-08T13:35:29.933Z,94799.09
2023-09-08T13:37:56.511Z,94790.94
2023-09-08T13:40:23.031Z,94791.75
2023-09-08T13:42:49.781Z,94796.91
2023-09-08T13:45:17.319Z,94789.56
2023-09-08T13:47:44.061Z,94790.66
2023-09-08T13:50:11.062Z,94786.31
2023-09-08T13:52:38.694Z,94793.16
2023-09-08T13:55:30.124Z,94785.84
2023-09-08T13:57:55.912Z,94784.72
2023-09-08T14:00:25.367Z,94781.72
2023-09-08T14:02:57.821Z,94779.28
2023-09-08T14:05:28.744Z,94777.38
2023-09-08T14:08:06.167Z,94780.91
2023-09-08T14:10:40.757Z,94778.78
2023-09-08T14:13:09.077Z,94786.69
2023-09-08T14:15:36.574Z,94778.53
2023-09-08T14:18:03.190Z,94776.34
2023-09-08T14:20:30.754Z,94775.81
2023-09-08T14:22:57.359Z,94773.63
2023-09-08T14:25:24.929Z,94764.06
2023-09-08T14:27:51.373Z,94756.69
2023-09-08T14:30:18.099Z,94761.34
2023-09-08T14:32:44.700Z,94755.09
2023-09-08T14:35:13.314Z,94759.19
2023-09-08T14:37:39.786Z,94758.16
2023-09-08T14:40:07.499Z,94759.78
2023-09-08T14:42:33.997Z,94763.00
2023-09-08T14:45:00.665Z,94760.00
2023-09-08T14:47:27.149Z,94748.81
2023-09-08T14:49:54.901Z,94757.81
2023-09-08T14:52:21.863Z,94750.97
2023-09-08T14:54:49.081Z,94755.31
2023-09-08T14:57:15.702Z,94758.03
2023-09-08T14:59:43.289Z,94754.78
2023-09-08T15:02:09.808Z,94752.06
2023-09-08T15:04:36.448Z,94753.69
2023-09-08T15:07:02.963Z,94754.78
2023-09-08T15:09:29.636Z,94758.91
2023-09-08T15:11:56.126Z,94755.38
2023-09-08T15:14:22.824Z,94755.38
2023-09-08T15:16:49.525Z,94751.03
2023-09-08T15:19:17.014Z,94746.66
2023-09-08T15:21:43.659Z,94750.47
2023-09-08T15:24:11.271Z,94746.16
2023-09-08T15:26:37.738Z,94748.34
2023-09-08T15:29:05.476Z,94742.09
2023-09-08T15:31:31.973Z,94741.28
2023-09-08T15:33:58.685Z,94733.38
2023-09-08T15:36:25.251Z,94738.63
2023-09-08T15:38:52.839Z,94735.91
2023-09-08T15:41:19.353Z,94734.78
2023-09-08T15:43:47.035Z,94739.38
2023-09-08T15:46:14.665Z,94737.47
2023-09-08T15:48:42.198Z,94735.34
2023-09-08T15:51:08.761Z,94733.97
2023-09-08T15:53:35.676Z,94729.63
2023-09-08T15:56:02.469Z,94729.63
2023-09-08T15:58:28.963Z,94726.38
2023-09-08T16:00:55.549Z,94720.69
2023-09-08T16:03:22.319Z,94722.59
2023-09-08T16:05:48.943Z,94715.50
2023-09-08T16:08:15.480Z,94720.47
2023-09-08T16:10:42.520Z,94722.94
2023-09-08T16:13:09.086Z,94722.97
2023-09-08T16:15:36.676Z,94725.75
2023-09-08T16:18:03.306Z,94730.44
2023-09-08T16:20:30.898Z,94718.75
2023-09-08T16:22:57.354Z,94722.88
2023-09-08T16:25:24.092Z,94727.25
2023-09-08T16:27:50.586Z,94725.38
2023-09-08T16:30:17.032Z,94727.88
2023-09-08T16:32:43.535Z,94724.13
2023-09-08T16:35:10.001Z,94726.59
2023-09-08T16:37:36.516Z,94722.22
2023-09-08T16:40:03.682Z,94725.53
2023-09-08T16:42:30.237Z,94721.19
2023-09-08T16:44:56.879Z,94723.38
2023-09-08T16:47:23.368Z,94719.59
2023-09-08T16:49:50.017Z,94721.81
2023-09-08T16:52:16.494Z,94726.47
2023-09-08T16:54:43.190Z,94733.88
2023-09-08T16:57:09.821Z,94739.38
2023-09-08T16:59:37.363Z,94737.03
2023-09-08T17:02:03.974Z,94729.75
2023-09-08T17:04:30.633Z,94728.47
2023-09-08T17:06:57.159Z,94728.78
2023-09-08T17:09:24.711Z,94735.38
2023-09-08T17:11:51.303Z,94733.53
2023-09-08T17:14:17.879Z,94727.03
2023-09-08T17:16:44.479Z,94731.91
2023-09-08T17:19:11.075Z,94727.09
2023-09-08T17:21:37.621Z,94727.41
2023-09-08T17:24:04.226Z,94736.88
2023-09-08T17:26:30.675Z,94718.44
2023-09-08T17:28:57.400Z,94729.09
2023-09-08T17:31:23.857Z,94728.00
2023-09-08T17:33:50.316Z,94729.41
2023-09-08T17:36:16.815Z,94723.72
2023-09-08T17:38:43.313Z,94734.59
2023-09-08T17:41:09.759Z,94730.22
2023-09-08T17:43:37.203Z,94730.50
2023-09-08T17:46:05.089Z,94729.69
2023-09-08T17:48:31.942Z,94732.41
2023-09-08T17:50:58.581Z,94740.28
2023-09-08T17:53:25.363Z,94735.13
2023-09-08T17:55:51.840Z,94732.13
2023-09-08T17:58:19.536Z,94729.16
2023-09-08T18:00:46.147Z,94739.97
2023-09-08T18:03:15.801Z,94740.47
2023-09-08T18:05:43.037Z,94742.06
2023-09-08T18:08:09.495Z,94735.53
2023-09-08T18:10:36.023Z,94739.88
2023-09-08T18:13:03.114Z,94735.00
2023-09-08T18:15:29.614Z,94743.41
2023-09-08T18:17:56.142Z,94743.91
2023-09-08T18:20:22.680Z,94751.75
2023-09-08T18:22:49.436Z,94758.50
2023-09-08T18:25:15.902Z,94756.34
2023-09-08T18:27:42.629Z,94757.66
2023-09-08T18:30:09.197Z,94759.28
2023-09-08T18:32:35.807Z,94761.72
2023-09-08T18:35:02.277Z,94766.06
2023-09-08T18:37:28.757Z,94757.09
2023-09-08T18:39:55.237Z,94762.75
2023-09-08T18:42:21.729Z,94768.41
2023-09-08T18:44:48.199Z,94763.50
2023-09-08T18:47:14.726Z,94759.44
2023-09-08T18:49:41.227Z,94759.72
2023-09-08T18:52:07.696Z,94764.56
2023-09-08T18:54:34.216Z,94760.72
2023-09-08T18:57:00.681Z,94759.63
2023-09-08T18:59:27.136Z,94761.28
2023-09-08T19:01:53.637Z,94767.25
2023-09-08T19:04:20.110Z,94767.50
2023-09-08T19:06:46.584Z,94767.25
2023-09-08T19:09:13.037Z,94766.16
2023-09-08T19:11:39.543Z,94774.34
2023-09-08T19:14:06.032Z,94769.66
2023-09-08T19:16:32.518Z,94774.81
2023-09-08T19:18:59.051Z,94769.66
2023-09-08T19:21:25.505Z,94774.22
2023-09-08T19:23:51.961Z,94775.00
2023-09-08T19:26:18.391Z,94779.59
2023-09-08T19:28:44.867Z,94776.03
2023-09-08T19:31:11.386Z,94780.13
2023-09-08T19:33:38.134Z,94785.81
2023-09-08T19:36:04.813Z,94784.50
2023-09-08T19:38:32.366Z,94785.25
2023-09-08T19:40:58.898Z,94790.38
2023-09-08T19:43:25.375Z,94790.09
2023-09-08T19:45:51.843Z,94784.38
2023-09-08T19:48:18.427Z,94786.25
2023-09-08T19:50:44.938Z,94788.34
2023-09-08T19:53:11.467Z,94788.88
2023-09-08T19:55:37.891Z,94788.31
2023-09-08T19:58:04.370Z,94786.38
2023-09-08T20:00:30.817Z,94787.16
2023-09-08T20:02:57.371Z,94782.31
2023-09-08T20:05:23.857Z,94780.09
2023-09-08T20:07:50.316Z,94791.94
2023-09-08T20:10:16.804Z,94793.00
2023-09-08T20:12:43.869Z,94796.50
2023-09-08T20:15:11.748Z,94796.50
2023-09-08T20:17:38.283Z,94801.41
2023-09-08T20:20:04.765Z,94800.06
2023-09-08T20:22:31.240Z,94792.50
2023-09-08T20:24:57.711Z,94802.75
2023-09-08T20:27:24.210Z,94794.66
2023-09-08T20:29:50.695Z,94800.06
2023-09-08T20:32:17.156Z,94800.59
2023-09-08T20:34:43.623Z,94801.09
2023-09-08T20:37:10.101Z,94803.13
2023-09-08T20:39:36.635Z,94805.78
2023-09-08T20:42:03.106Z,94800.41
2023-09-08T20:44:29.567Z,94796.34
2023-09-08T20:46:56.052Z,94798.47
2023-09-08T20:49:23.066Z,94803.09
2023-09-08T20:51:49.661Z,94795.03
2023-09-08T20:54:16.131Z,94806.41
2023-09-08T20:56:42.580Z,94801.16
2023-09-08T20:59:09.028Z,94799.00
2023-09-08T21:01:36.042Z,94799.19
2023-09-08T21:04:03.641Z,94799.16
2023-09-08T21:06:31.200Z,94799.59
2023-09-08T21:08:57.778Z,94803.47
2023-09-08T21:11:24.380Z,94801.25
2023-09-08T21:13:51.006Z,94802.00
2023-09-08T21:16:18.637Z,94803.31
2023-09-08T21:18:45.151Z,94803.03
2023-09-08T21:21:11.901Z,94800.28
2023-09-08T21:23:39.526Z,94799.69
2023-09-08T21:26:07.050Z,94798.13
2023-09-08T21:28:34.678Z,94796.19
2023-09-08T21:31:02.162Z,94794.81
2023-09-08T21:33:28.756Z,94796.31
2023-09-08T21:35:56.368Z,94798.47
2023-09-08T21:38:23.927Z,94787.66
2023-09-08T21:40:50.506Z,94787.97
2023-09-08T21:43:17.107Z,94794.25
2023-09-08T21:45:43.632Z,94795.25
2023-09-08T21:48:10.221Z,94792.53
2023-09-08T21:50:36.715Z,94786.66
2023-09-08T21:53:04.511Z,94785.84
2023-09-08T21:55:32.255Z,94783.88
2023-09-08T21:57:59.670Z,94781.94
2023-09-08T22:00:28.278Z,94779.19
2023-09-08T22:02:56.078Z,94773.78
2023-09-08T22:05:24.479Z,94784.28
2023-09-08T22:07:52.073Z,94783.94
2023-09-08T22:10:18.614Z,94781.00
2023-09-08T22:12:45.131Z,94781.75
2023-09-08T22:15:11.834Z,94777.66
2023-09-08T22:17:38.375Z,94779.56
2023-09-08T22:20:06.037Z,94782.25
2023-09-08T22:22:32.526Z,94775.84
2023-09-08T22:24:59.193Z,94780.44
2023-09-08T22:27:26.187Z,94774.38
2023-09-08T22:29:52.653Z,94774.84
2023-09-08T22:32:19.152Z,94780.31
2023-09-08T22:34:45.653Z,94780.75
2023-09-08T22:37:12.155Z,94782.66
2023-09-08T22:39:38.738Z,94775.59
2023-09-08T22:42:06.302Z,94776.44
2023-09-08T22:44:32.914Z,94774.72
2023-09-08T22:47:00.566Z,94777.94
2023-09-08T22:49:28.082Z,94776.75
2023-09-08T22:51:55.694Z,94773.00
2023-09-08T22:54:22.214Z,94776.56
2023-09-08T22:56:48.668Z,94775.69
2023-09-08T22:59:15.132Z,94771.97
2023-09-08T23:01:42.056Z,94771.38
2023-09-08T23:04:08.539Z,94776.22
2023-09-08T23:06:35.029Z,94773.00
2023-09-08T23:09:01.487Z,94770.25
2023-09-08T23:11:28.483Z,94770.53
2023-09-08T23:13:55.976Z,94771.16
2023-09-08T23:16:23.607Z,94772.56
2023-09-08T23:18:50.111Z,94760.44
2023-09-08T23:21:16.717Z,94768.50
2023-09-08T23:23:43.204Z,94771.72
2023-09-08T23:26:09.662Z,94774.00
2023-09-08T23:28:36.124Z,94768.06
2023-09-08T23:31:02.589Z,94765.84
2023-09-08T23:33:29.204Z,94768.53
2023-09-08T23:35:57.356Z,94772.13
2023-09-08T23:38:23.844Z,94764.38
2023-09-08T23:40:50.347Z,94770.31
2023-09-08T23:43:16.829Z,94766.34
2023-09-08T23:45:43.381Z,94772.28
2023-09-08T23:48:09.918Z,94769.09
2023-09-08T23:50:36.454Z,94768.03
2023-09-08T23:53:02.934Z,94772.09
2023-09-08T23:55:29.424Z,94773.16
2023-09-08T23:57:55.930Z,94774.78
